createdAt,value
2018-11-05T05:30:25.348Z,64.97
2018-11-05T05:32:53.161Z,92.07
2018-11-05T05:35:21.128Z,88.37
2018-11-05T05:37:49.067Z,146.73
2018-11-05T05:40:17.001Z,70.57
2018-11-05T05:42:44.916Z,41.37
2018-11-05T05:45:13.132Z,56.40
2018-11-05T05:47:41.702Z,61.03
2018-11-05T05:50:11.120Z,56.27
2018-11-05T05:52:39.399Z,82.57
2018-11-05T05:55:07.632Z,78.70
2018-11-05T05:57:35.612Z,52.47
2018-11-05T06:00:03.593Z,41.80
2018-11-05T06:02:31.487Z,41.70
2018-11-05T06:04:59.832Z,44.27
2018-11-05T06:07:27.804Z,43.50
2018-11-05T06:09:55.762Z,33.33
2018-11-05T06:12:23.691Z,30.07
2018-11-05T06:14:51.720Z,28.00
2018-11-05T06:17:19.639Z,32.47
2018-11-05T06:19:47.676Z,25.67
2018-11-05T06:22:15.626Z,25.67
2018-11-05T06:24:43.592Z,29.43
2018-11-05T06:27:11.527Z,29.37
2018-11-05T06:29:39.472Z,37.50
2018-11-05T06:32:07.431Z,35.17
2018-11-05T06:34:35.463Z,36.40
2018-11-05T06:37:03.393Z,38.53
2018-11-05T06:39:31.332Z,38.10
2018-11-05T06:41:59.331Z,42.03
2018-11-05T06:44:27.260Z,37.00
2018-11-05T06:46:55.224Z,127.03
2018-11-05T06:49:23.160Z,256.00
2018-11-05T06:51:51.092Z,144.60
2018-11-05T06:54:19.120Z,50.57
2018-11-05T06:56:47.096Z,197.07
2018-11-05T06:59:15.016Z,316.30
2018-11-05T07:01:42.963Z,299.27
2018-11-05T07:04:10.908Z,240.23
2018-11-05T07:06:39.194Z,212.87
2018-11-05T07:09:08.664Z,222.30
2018-11-05T07:17:06.383Z,38.07
2018-11-05T07:19:34.384Z,27.27
2018-11-05T07:22:02.294Z,25.60
2018-11-05T07:24:30.199Z,25.00
2018-11-05T07:26:58.155Z,24.70
2018-11-05T07:29:26.084Z,23.07
2018-11-05T07:31:54.100Z,23.00
2018-11-05T07:34:22.264Z,22.20
2018-11-05T07:36:50.099Z,25.53
2018-11-05T07:39:17.999Z,18.97
2018-11-05T07:41:45.920Z,16.73
2018-11-05T07:44:13.904Z,15.93
2018-11-05T16:02:58.893Z,24.10
2018-11-05T16:05:26.827Z,27.17
2018-11-05T16:07:54.853Z,24.03
2018-11-05T16:10:23.000Z,26.27
2018-11-05T16:12:50.928Z,21.07
2018-11-05T16:15:19.008Z,19.27
2018-11-05T16:17:46.955Z,26.67
2018-11-05T16:20:16.196Z,24.73
2018-11-05T16:22:44.577Z,26.13
2018-11-05T16:25:12.658Z,22.23
2018-11-05T16:27:40.823Z,22.13
2018-11-05T16:30:09.566Z,18.43
2018-11-05T16:32:37.492Z,19.73
2018-11-05T16:35:05.523Z,20.53
2018-11-05T16:37:33.509Z,19.90
2018-11-05T16:40:01.474Z,18.67
2018-11-05T16:42:29.396Z,21.77
2018-11-05T16:44:57.324Z,18.87
2018-11-05T16:47:25.281Z,18.27
2018-11-05T16:49:53.261Z,20.67
2018-11-05T16:52:21.169Z,18.57
2018-11-05T16:54:49.179Z,25.20
2018-11-05T16:57:17.136Z,21.60
2018-11-05T16:59:45.125Z,25.30
2018-11-05T17:02:14.651Z,25.63
2018-11-05T17:04:43.656Z,25.20
2018-11-05T17:07:11.200Z,18.43
2018-11-05T17:09:39.319Z,24.43
2018-11-05T17:12:07.252Z,22.70
2018-11-05T17:14:35.315Z,23.60
2018-11-05T17:17:03.260Z,21.60
2018-11-05T17:19:31.865Z,24.60
2018-11-05T17:21:59.807Z,27.73
2018-11-05T17:24:28.524Z,26.60
2018-11-05T17:26:56.496Z,24.33
2018-11-05T17:29:24.460Z,23.90
2018-11-05T17:31:52.409Z,25.07
2018-11-05T17:34:20.716Z,23.13
2018-11-05T17:36:48.675Z,25.13
2018-11-05T17:39:16.615Z,26.50
2018-11-05T17:41:44.623Z,26.77
2018-11-05T17:44:13.312Z,22.20
2018-11-05T17:46:41.472Z,23.27
2018-11-05T17:49:11.288Z,25.30
2018-11-05T17:51:39.460Z,29.73
2018-11-05T17:54:07.411Z,25.83
2018-11-05T17:56:35.327Z,32.83
2018-11-05T17:59:03.691Z,23.60
2018-11-05T18:01:31.619Z,25.43
2018-11-05T18:03:59.876Z,29.17
2018-11-05T18:06:27.311Z,24.93
2018-11-05T18:08:55.646Z,30.03
2018-11-05T18:11:23.694Z,29.10
2018-11-05T18:13:51.939Z,33.03
2018-11-05T18:16:19.876Z,31.50
2018-11-05T18:18:47.871Z,36.20
2018-11-05T18:21:15.832Z,31.47
2018-11-05T18:23:43.756Z,51.13
2018-11-05T18:26:11.879Z,29.27
2018-11-05T18:28:39.920Z,28.80
2018-11-05T18:31:07.948Z,46.27
2018-11-05T18:33:35.824Z,36.67
2018-11-05T18:38:38.283Z,30.37
2018-11-05T18:41:06.252Z,32.10
2018-11-05T18:43:34.288Z,26.60
2018-11-05T18:46:02.313Z,27.03
2018-11-05T18:48:30.472Z,30.53
2018-11-05T18:50:58.495Z,26.27
2018-11-05T18:53:26.440Z,37.50
2018-11-05T18:55:54.497Z,33.77
2018-11-05T18:58:22.399Z,36.47
2018-11-05T19:00:50.437Z,31.77
2018-11-05T19:03:18.495Z,32.93
2018-11-05T19:05:46.364Z,40.03
2018-11-05T19:08:15.108Z,31.30
2018-11-05T19:10:43.139Z,32.63
2018-11-05T19:13:11.050Z,34.20
2018-11-05T19:15:39.018Z,27.83
2018-11-05T19:18:06.936Z,36.87
2018-11-05T19:20:34.977Z,36.50
2018-11-05T19:23:03.096Z,42.97
2018-11-05T19:25:30.915Z,50.23
2018-11-05T19:27:58.831Z,38.20
2018-11-05T19:30:27.612Z,39.07
2018-11-05T19:32:55.536Z,40.37
2018-11-05T19:35:23.469Z,35.43
2018-11-05T19:37:51.463Z,38.30
2018-11-05T19:40:19.866Z,37.13
2018-11-05T19:42:48.411Z,53.83
2018-11-05T19:45:17.555Z,63.33
2018-11-05T19:47:45.481Z,55.93
2018-11-05T19:50:14.915Z,47.57
2018-11-05T19:52:43.707Z,45.23
2018-11-05T19:55:12.731Z,42.20
2018-11-05T19:57:41.686Z,47.73
2018-11-05T20:00:15.530Z,110.30
2018-11-05T20:02:43.684Z,45.37
2018-11-05T20:05:11.814Z,42.90
2018-11-05T20:07:39.849Z,32.30
2018-11-05T20:10:07.316Z,28.70
2018-11-05T20:12:35.424Z,31.30
2018-11-05T20:15:03.428Z,27.60
2018-11-05T20:17:31.367Z,54.57
2018-11-05T20:19:59.391Z,38.60
2018-11-05T20:22:27.386Z,34.60
2018-11-05T20:24:55.240Z,43.00
2018-11-05T20:27:23.251Z,39.83
2018-11-05T20:29:51.199Z,30.90
2018-11-05T20:32:19.477Z,33.57
2018-11-05T20:34:47.072Z,41.80
2018-11-05T20:37:15.004Z,35.37
2018-11-05T20:39:43.055Z,34.23
2018-11-05T20:42:11.085Z,38.90
2018-11-05T20:44:39.021Z,35.20
2018-11-05T20:47:07.528Z,44.23
2018-11-05T20:49:35.479Z,41.73
2018-11-05T20:52:03.444Z,37.57
2018-11-05T20:54:31.431Z,39.50
2018-11-05T20:56:59.584Z,46.60
2018-11-05T20:59:27.511Z,50.20
2018-11-05T21:01:55.591Z,44.03
2018-11-05T21:04:23.605Z,48.40
2018-11-05T21:06:52.487Z,42.90
2018-11-05T21:09:20.455Z,41.10
2018-11-05T21:11:48.434Z,44.87
2018-11-05T21:14:16.371Z,42.93
2018-11-05T21:16:44.491Z,41.93
2018-11-05T21:19:12.548Z,42.63
2018-11-05T21:21:40.805Z,35.87
2018-11-05T21:24:08.692Z,34.53
2018-11-05T21:26:38.280Z,44.13
2018-11-05T21:29:06.308Z,40.07
2018-11-05T21:31:34.240Z,33.97
2018-11-05T21:34:02.199Z,34.90
2018-11-05T21:36:30.123Z,41.13
2018-11-05T21:38:58.068Z,50.03
2018-11-05T21:41:26.020Z,40.10
2018-11-05T21:43:53.951Z,43.90
2018-11-05T21:46:22.060Z,37.13
2018-11-05T21:48:49.992Z,45.03
2018-11-05T21:51:17.959Z,48.70
2018-11-05T21:53:45.892Z,38.50
2018-11-05T21:56:13.951Z,41.73
2018-11-05T21:58:41.916Z,40.10
2018-11-05T22:01:09.934Z,44.47
2018-11-05T22:03:37.837Z,48.03
2018-11-05T22:06:05.751Z,55.80
2018-11-05T22:08:34.516Z,54.77
2018-11-05T22:11:02.446Z,50.00
2018-11-05T22:13:30.373Z,47.80
2018-11-05T22:15:58.327Z,52.27
2018-11-05T22:18:26.283Z,55.03
2018-11-05T22:20:54.250Z,48.70
2018-11-05T22:23:22.215Z,46.47
2018-11-05T22:25:50.180Z,47.87
2018-11-05T22:28:18.144Z,42.70
2018-11-05T22:30:46.532Z,48.67
2018-11-05T22:33:14.504Z,31.73
2018-11-05T22:35:42.444Z,36.33
2018-11-05T22:38:10.493Z,33.50
2018-11-05T22:40:38.468Z,36.73
2018-11-05T22:43:06.444Z,30.83
2018-11-05T22:45:34.340Z,35.20
2018-11-05T22:48:02.264Z,32.23
2018-11-05T22:50:30.294Z,36.33
2018-11-05T22:52:58.140Z,30.10
2018-11-05T22:55:26.055Z,31.80
2018-11-05T22:57:53.973Z,29.33
2018-11-05T23:00:27.595Z,26.90
2018-11-05T23:03:01.202Z,30.10
2018-11-05T23:05:29.143Z,33.23
2018-11-05T23:07:57.089Z,31.20
2018-11-05T23:10:24.610Z,28.70
2018-11-05T23:12:52.551Z,25.70
2018-11-05T23:15:20.767Z,23.40
2018-11-05T23:17:48.971Z,23.50
2018-11-05T23:20:16.871Z,24.07
2018-11-05T23:22:44.876Z,25.40
2018-11-05T23:25:13.351Z,25.90
2018-11-05T23:27:41.599Z,21.93
2018-11-05T23:30:10.316Z,24.90
2018-11-05T23:32:39.108Z,21.13
2018-11-05T23:35:07.938Z,20.77
2018-11-05T23:37:36.379Z,24.00
2018-11-05T23:40:05.653Z,21.70
2018-11-05T23:42:33.586Z,23.33
2018-11-05T23:45:01.575Z,20.70
